Latest Weather Observations for Kingfish B

IDV60801

Issued at 8:02 am EST Thursday 29 September 2016 (issued every 30 minutes, with the page automatically refreshed every 10 minutes)

About weather observations | Map of weather stations | Latest weather observations for VIC | Other Formats
Station Details ID: 400139 Name: KINGFISH B (PLATFORM) Lat: -38.60 Lon: 148.19 Height: 31.4 m
Data from the previous 72 hours. | See also: Recent months for locations in Victoria
Date/Time
EST
Temp
°C
App
Temp
°C
Dew
Point
°C
Rel
Hum
%
Delta-T
°C
Wind Press
QNH
hPa
Press
MSL
hPa
Rain since
9am
mm
Dir  Spd
km/h
Gust
km/h
Spd
kts
Gust
kts
29/06:40am 15.1 4.3 9.9 71 2.7 NE 57 69 31 37 992.1 - -
29/06:30am 15.2 3.6 9.7 69 2.9 NE 61 70 33 38 992.2 - -
29/06:20am 15.4 3.4 9.7 69 3.0 NE 63 74 34 40 992.2 - -
29/06:10am 15.8 3.7 9.3 65 3.4 NE 63 74 34 40 992.3 - -
29/06:00am 15.8 4.1 9.4 65 3.3 NE 61 72 33 39 992.5 - -
29/05:50am 15.8 4.9 9.5 66 3.3 NE 57 69 31 37 992.6 - -
29/05:40am 15.8 4.5 9.6 66 3.2 NE 59 69 32 37 992.8 - -
29/05:30am 15.8 4.1 9.5 66 3.3 NE 61 76 33 41 992.8 - -
29/05:20am 15.8 4.5 9.5 66 3.3 NE 59 69 32 37 992.9 - -
29/05:10am 15.8 4.2 9.6 66 3.2 NE 61 72 33 39 992.9 - -
29/05:00am 15.8 4.5 9.6 66 3.2 NE 59 72 32 39 992.8 - -
29/04:50am 15.8 3.8 9.6 66 3.2 NE 63 74 34 40 992.9 - -
29/04:40am 15.8 4.6 9.8 67 3.1 NE 59 69 32 37 993.0 - -
29/04:30am 15.8 4.5 9.6 66 3.2 NE 59 70 32 38 993.2 - -
29/04:20am 15.8 4.5 9.5 66 3.3 NE 59 69 32 37 993.3 - -
29/04:10am 15.7 4.4 9.6 67 3.2 NE 59 69 32 37 993.5 - -
29/04:00am 15.7 4.8 9.7 67 3.1 NE 57 69 31 37 993.7 - -
29/03:50am 15.6 4.8 9.8 68 3.0 NE 57 67 31 36 993.6 - -
29/03:40am 15.6 5.0 10.0 69 2.9 NE 56 67 30 36 993.9 - -
29/03:30am 15.6 4.4 9.8 68 3.0 NE 59 69 32 37 994.3 - -
29/03:20am 15.5 4.7 9.9 69 2.9 NE 57 69 31 37 994.5 - -
29/02:50am 15.4 3.0 9.8 69 2.9 NE 65 76 35 41 994.4 - -
29/02:40am 15.4 4.2 9.9 70 2.9 NE 59 74 32 40 994.7 - -
29/02:30am 15.3 4.1 9.9 70 2.8 NE 59 70 32 38 994.8 - -
29/02:10am 15.3 4.1 9.9 70 2.8 NE 59 70 32 38 995.2 - -
29/01:40am 15.3 4.7 9.9 70 2.8 NE 56 65 30 35 996.3 - -
29/01:10am 15.3 4.5 9.9 70 2.8 NE 57 67 31 36 997.0 - -
29/01:00am 15.3 4.7 10.0 70 2.8 NE 56 65 30 35 997.1 - -
29/12:50am 15.3 5.1 10.0 70 2.8 NE 54 63 29 34 997.3 - -
29/12:40am 15.3 5.1 9.9 70 2.8 NE 54 61 29 33 997.7 - -
29/12:30am 15.2 5.0 9.9 70 2.8 NE 54 63 29 34 997.8 - -
29/12:20am 15.2 4.6 9.8 70 2.8 NE 56 67 30 36 997.9 - -
29/12:10am 15.1 4.5 9.8 70 2.8 NE 56 63 30 34 998.2 - -
29/12:00am 15.1 3.9 9.8 70 2.8 NE 59 67 32 36 998.3 - -
 
Date/Time
EST
Temp
°C
App
Temp
°C
Dew
Point
°C
Rel
Hum
%
Delta-T
°C
Wind Press
QNH
hPa
Press
MSL
hPa
Rain since
9am
mm
Dir  Spd
km/h
Gust
km/h
Spd
kts
Gust
kts
28/11:50pm 15.0 4.2 9.8 71 2.7 NE 57 65 31 35 998.5 - -
28/11:40pm 15.0 3.8 9.8 71 2.7 NE 59 65 32 35 998.5 - -
28/11:30pm 15.0 4.1 9.7 70 2.7 NE 57 67 31 36 998.8 - -
28/11:20pm 15.0 3.8 9.8 71 2.7 NE 59 70 32 38 998.9 - -
28/11:10pm 15.0 4.2 9.9 71 2.7 NE 57 67 31 36 999.2 - -
28/11:00pm 15.1 3.5 9.9 71 2.7 NE 61 70 33 38 999.3 - -
28/10:50pm 15.1 3.9 9.9 71 2.7 NE 59 70 32 38 999.6 - -
28/10:30pm 15.1 4.5 10.0 71 2.7 NE 56 65 30 35 1000.3 - -
28/10:20pm 15.0 4.2 9.9 71 2.7 NE 57 65 31 35 1000.5 - -
28/10:10pm 15.1 4.6 10.2 72 2.6 NE 56 67 30 36 1000.9 - -
28/10:00pm 15.0 3.9 10.1 72 2.6 NE 59 67 32 36 1000.9 - -
28/09:50pm 15.0 4.2 10.1 72 2.6 NE 57 67 31 36 1000.9 - -
28/09:40pm 15.0 3.9 10.1 72 2.6 NE 59 69 32 37 1001.1 - -
28/09:30pm 15.1 4.5 10.1 72 2.6 NE 56 67 30 36 1001.4 - -
28/09:20pm 15.1 4.4 10.2 72 2.6 NE 57 67 31 36 1001.6 - -
28/09:10pm 15.1 3.6 10.0 71 2.7 NE 61 69 33 37 1001.7 - -
28/09:00pm 15.1 3.6 10.0 71 2.7 NE 61 69 33 37 1001.9 - -
28/08:50pm 15.2 3.6 9.9 70 2.8 NE 61 70 33 38 1002.0 - -
28/08:40pm 15.1 3.9 9.9 71 2.7 NE 59 70 32 38 1001.9 - -
28/08:30pm 15.1 4.2 9.6 69 2.8 ENE 57 70 31 38 1001.9 - -
28/08:20pm 15.2 3.5 9.4 68 3.0 ENE 61 72 33 39 1002.1 - -
28/08:10pm 15.2 3.9 9.5 69 2.9 ENE 59 70 32 38 1002.3 - -
28/08:00pm 15.2 3.9 9.3 68 3.0 ENE 59 72 32 39 1002.4 - -
28/07:50pm 15.3 4.4 9.7 69 2.9 ENE 57 72 31 39 1002.5 - -
28/07:40pm 15.2 4.5 9.7 69 2.9 ENE 56 67 30 36 1002.8 - -
28/07:30pm 15.2 4.9 9.8 70 2.8 ENE 54 65 29 35 1002.9 - -
28/07:20pm 15.2 5.3 9.6 69 2.9 ENE 52 69 28 37 1003.1 - -
28/07:10pm 15.2 5.6 9.5 69 2.9 ENE 50 61 27 33 1003.0 - -
28/07:00pm 15.2 6.4 9.5 69 2.9 ENE 46 59 25 32 1003.1 - -
28/06:50pm 15.1 5.5 9.3 68 3.0 ENE 50 63 27 34 1003.5 - -
28/06:40pm 15.1 6.3 9.7 70 2.8 ENE 46 61 25 33 1003.9 - -
28/06:30pm 15.1 5.9 9.5 69 2.9 ENE 48 57 26 31 1003.9 - -
28/06:20pm 15.0 6.2 9.4 69 2.9 ENE 46 56 25 30 1004.0 - -
28/06:10pm 15.0 6.5 9.4 69 2.9 ENE 44 56 24 30 1004.5 - -
28/06:00pm 15.0 6.7 9.4 69 2.9 ENE 43 57 23 31 1004.5 - -
28/05:40pm 14.9 7.6 8.9 67 3.1 ENE 37 46 20 25 1004.5 - -
28/05:30pm 14.9 7.6 8.8 67 3.1 ENE 37 50 20 27 1004.5 - -
28/05:20pm 14.9 7.5 8.3 64 3.3 ENE 37 48 20 26 1004.9 - -
28/05:10pm 14.9 8.4 8.1 64 3.4 ENE 32 39 17 21 1005.0 - -
28/05:00pm 14.8 8.3 8.2 64 3.3 ENE 32 37 17 20 1004.9 - -
28/04:50pm 14.8 9.1 8.5 66 3.2 ENE 28 37 15 20 1004.7 - -
28/04:40pm 14.7 7.5 7.8 63 3.4 ENE 35 46 19 25 1004.6 - -
28/04:30pm 14.6 6.7 7.9 64 3.3 ENE 39 44 21 24 1004.3 - -
28/04:20pm 14.6 7.8 7.9 64 3.3 ENE 33 41 18 22 1004.5 - -
28/04:10pm 14.7 8.5 7.8 63 3.4 ENE 30 39 16 21 1004.9 - -
28/04:00pm 14.6 8.7 7.7 63 3.4 ENE 28 37 15 20 1005.1 - -
28/01:40pm 14.9 12.4 6.7 58 4.0 NE 9 13 5 7 1007.7 - -
28/01:30pm 14.9 12.9 7.1 59 3.8 NE 7 11 4 6 1007.8 - -
28/01:20pm 14.9 12.8 6.7 58 4.0 NE 7 9 4 5 1008.3 - -
28/01:10pm 14.9 13.0 6.9 58 3.9 NE 6 7 3 4 1008.7 - -
28/01:00pm 14.9 13.1 7.0 59 3.9 NNE 6 7 3 4 1008.8 - -
28/12:50pm 14.7 12.9 7.0 60 3.8 NNE 6 9 3 5 1009.3 - -
28/12:40pm 14.7 13.3 7.4 61 3.6 NNE 4 7 2 4 1009.4 - -
28/12:30pm 14.6 13.2 7.3 61 3.6 NNE 4 9 2 5 1009.6 - -
28/12:20pm 14.5 13.1 7.3 62 3.5 N 4 9 2 5 1009.8 - -
28/12:10pm 14.6 13.2 7.4 62 3.6 N 4 9 2 5 1010.0 - -
28/12:00pm 14.7 13.4 7.5 62 3.6 N 4 11 2 6 1010.0 - -
28/11:50am 14.8 13.1 7.7 62 3.5 NNE 6 9 3 5 1010.1 - -
28/11:40am 14.8 13.1 7.6 62 3.6 NNE 6 9 3 5 1010.1 - -
28/11:30am 14.9 13.6 7.8 62 3.5 N 4 9 2 5 1010.4 - -
28/11:20am 15.2 14.0 7.9 61 3.7 N 4 9 2 5 1010.5 - -
28/11:10am 15.4 13.8 8.1 61 3.7 NNW 6 9 3 5 1010.8 - -
28/11:00am 15.4 13.6 8.0 61 3.7 NW 7 9 4 5 1010.9 - -
28/10:50am 15.5 13.7 7.9 60 3.8 NW 7 9 4 5 1011.0 - -
28/10:40am 15.5 13.7 7.8 60 3.9 NW 7 11 4 6 1011.1 - -
28/10:30am 15.9 14.0 7.6 58 4.1 NW 7 11 4 6 1011.2 - -
28/10:20am 16.3 14.4 7.6 56 4.4 WNW 7 9 4 5 1011.2 - -
28/10:10am 16.6 14.7 7.6 55 4.5 WNW 7 9 4 5 1011.3 - -
28/10:00am 16.6 14.3 7.6 55 4.5 WNW 9 13 5 7 1011.5 - -
28/09:50am 16.7 14.1 7.7 55 4.5 WNW 11 13 6 7 1011.7 - -
28/09:40am 16.9 14.2 7.4 53 4.8 WNW 11 15 6 8 1012.0 - -
28/09:30am 16.9 14.3 7.7 54 4.6 WNW 11 15 6 8 1012.0 - -
28/09:20am 16.7 13.8 8.0 56 4.4 WNW 13 17 7 9 1012.1 - -
28/09:10am 16.8 14.2 7.9 55 4.5 WNW 11 15 6 8 1012.0 - -
28/09:00am 16.7 14.2 8.1 57 4.4 WNW 11 15 6 8 1012.1 - -
28/08:50am 16.9 14.4 8.3 57 4.4 WNW 11 15 6 8 1012.1 - -
28/08:40am 16.9 14.0 8.2 56 4.4 WNW 13 17 7 9 1012.3 - -
28/08:30am 16.8 14.3 8.4 57 4.3 WNW 11 15 6 8 1012.3 - -
28/08:20am 16.7 14.3 8.5 58 4.2 WNW 11 15 6 8 1012.4 - -
28/08:10am 16.4 14.0 8.6 60 4.0 WNW 11 15 6 8 1012.4 - -
28/08:00am 16.5 14.0 8.4 58 4.1 WNW 11 15 6 8 1012.5 - -
28/07:50am 16.5 13.7 8.5 59 4.1 WNW 13 17 7 9 1012.5 - -
28/07:30am 16.7 13.6 8.8 59 4.1 WNW 15 19 8 10 1012.6 - -
28/07:20am 16.6 13.5 8.7 59 4.1 WNW 15 19 8 10 1012.7 - -
28/07:10am 16.5 13.0 8.8 60 4.0 WNW 17 19 9 10 1012.6 - -
28/07:00am 16.5 13.4 8.8 60 4.0 WNW 15 19 8 10 1012.5 - -
28/06:50am 16.4 12.9 8.7 60 3.9 WNW 17 20 9 11 1012.4 - -
28/06:40am 16.7 13.9 8.4 58 4.2 WNW 13 20 7 11 1012.3 - -
28/06:30am 16.6 15.1 8.5 58 4.1 W 6 9 3 5 1011.9 - -
28/06:20am 16.5 15.4 8.6 59 4.0 W 4 9 2 5 1011.9 - -
28/06:10am 16.3 15.6 8.6 60 3.9 W 2 6 1 3 1011.9 - -
28/06:00am 16.2 15.6 8.8 61 3.8 W 2 4 1 2 1011.7 - -
28/05:50am 15.9 15.2 8.6 62 3.7 W 2 4 1 2 1011.7 - -
28/05:40am 15.6 14.9 8.7 63 3.5 WSW 2 4 1 2 1011.8 - -
28/05:30am 15.3 14.6 8.7 64 3.4 W 2 4 1 2 1011.7 - -
28/05:20am 14.6 13.9 8.4 66 3.1 WSW 2 6 1 3 1011.6 - -
28/05:10am 13.9 13.1 8.3 69 2.8 WSW 2 6 1 3 1011.4 - -
28/05:00am 13.4 12.3 8.3 71 2.5 WSW 4 7 2 4 1011.5 - -
28/04:50am 13.4 12.3 8.5 72 2.5 WSW 4 7 2 4 1011.7 - -
28/04:40am 13.3 12.2 8.3 72 2.5 WSW 4 7 2 4 1011.5 - -
28/04:30am 13.4 12.6 8.1 70 2.6 WSW 2 6 1 3 1011.4 - -
28/04:20am 13.3 12.4 7.6 68 2.8 WSW 2 6 1 3 1011.2 - -
28/04:10am 13.3 12.3 7.4 67 2.9 WSW 2 7 1 4 1011.4 - -
28/04:00am 13.3 12.3 7.4 67 2.9 WSW 2 6 1 3 1011.3 - -
28/03:50am 13.2 12.6 7.4 68 2.8 CALM 0 2 0 1 1011.2 - -
28/03:40am 13.2 12.6 7.5 68 2.8 CALM 0 4 0 2 1011.2 - -
28/03:30am 13.2 12.3 7.6 69 2.7 WSW 2 6 1 3 1011.2 - -
28/03:20am 13.2 12.3 7.8 70 2.7 WSW 2 6 1 3 1011.1 - -
28/03:10am 13.2 12.3 7.7 69 2.7 WSW 2 6 1 3 1011.1 - -
28/03:00am 13.1 11.8 7.6 69 2.7 SW 4 7 2 4 1011.1 - -
28/02:50am 13.1 11.7 7.4 68 2.8 SW 4 7 2 4 1011.0 - -
28/02:40am 13.1 11.4 7.4 68 2.8 SW 6 9 3 5 1011.0 - -
28/02:30am 13.2 11.5 7.4 68 2.8 SW 6 11 3 6 1010.9 - -
28/02:20am 13.1 11.3 7.2 67 2.9 SW 6 11 3 6 1010.8 - -
28/02:10am 13.0 11.1 6.9 66 2.9 SW 6 9 3 5 1011.0 - -
28/02:00am 12.9 10.8 6.8 66 2.9 SW 7 9 4 5 1010.6 - -
28/01:50am 12.9 10.8 6.8 66 2.9 SW 7 13 4 7 1010.6 - -
28/01:40am 12.9 10.9 7.0 67 2.8 SW 7 11 4 6 1010.6 - -
28/01:30am 12.9 10.5 7.0 67 2.8 SW 9 11 5 6 1010.5 - -
28/01:20am 12.8 10.4 7.0 68 2.8 SW 9 13 5 7 1010.6 - -
28/01:10am 12.9 10.2 7.3 69 2.7 SW 11 19 6 10 1010.6 - -
28/01:00am 12.8 10.1 7.3 69 2.7 SW 11 19 6 10 1010.6 - -
28/12:50am 12.9 10.3 7.6 70 2.6 SW 11 15 6 8 1010.7 - -
28/12:40am 12.9 10.6 7.6 70 2.6 SW 9 17 5 9 1010.6 - -
28/12:30am 12.9 10.2 7.5 69 2.6 SW 11 17 6 9 1010.7 - -
28/12:20am 13.0 10.0 7.6 70 2.6 SW 13 19 7 10 1010.9 - -
28/12:10am 13.0 10.4 7.6 70 2.6 SW 11 17 6 9 1011.0 - -
28/12:00am 13.0 10.4 7.7 70 2.6 SW 11 17 6 9 1011.0 - -
 
Date/Time
EST
Temp
°C
App
Temp
°C
Dew
Point
°C
Rel
Hum
%
Delta-T
°C
Wind Press
QNH
hPa
Press
MSL
hPa
Rain since
9am
mm
Dir  Spd
km/h
Gust
km/h
Spd
kts
Gust
kts
27/11:50pm 13.0 10.8 7.7 70 2.6 SW 9 13 5 7 1011.1 - -
27/11:40pm 13.0 10.8 7.8 70 2.6 SW 9 13 5 7 1011.0 - -
27/11:30pm 13.0 10.8 7.8 70 2.6 SW 9 13 5 7 1010.9 - -
27/11:20pm 13.1 10.4 7.2 67 2.9 SW 11 15 6 8 1011.1 - -
27/11:10pm 13.1 10.0 7.1 67 2.9 SW 13 17 7 9 1011.1 - -
27/11:00pm 13.1 10.0 7.1 67 2.9 SW 13 20 7 11 1011.3 - -
27/10:50pm 13.0 9.5 7.0 67 2.9 SW 15 19 8 10 1011.3 - -
27/10:40pm 13.0 9.9 7.2 68 2.8 SW 13 19 7 10 1011.0 - -
27/10:30pm 12.9 10.2 7.4 69 2.7 SW 11 15 6 8 1011.1 - -
27/10:20pm 13.0 10.3 7.4 69 2.7 SW 11 17 6 9 1011.1 - -
27/10:10pm 12.9 9.4 7.2 68 2.8 SW 15 19 8 10 1010.7 - -
27/10:00pm 12.9 9.0 7.2 68 2.8 SW 17 20 9 11 1010.8 - -
27/09:50pm 13.0 9.2 7.5 69 2.7 SSW 17 22 9 12 1010.7 - -
27/09:40pm 13.0 9.3 7.9 71 2.5 SW 17 22 9 12 1010.9 - -
27/09:30pm 13.0 9.5 8.6 74 2.2 SW 17 22 9 12 1011.0 - -
27/09:20pm 12.9 9.8 8.8 76 2.1 SW 15 22 8 12 1010.9 - -
27/09:10pm 12.8 9.6 8.5 75 2.1 SSW 15 22 8 12 1010.7 - -
27/09:00pm 12.7 9.6 8.7 76 2.0 SSW 15 19 8 10 1010.7 - -
27/08:50pm 12.8 9.7 9.0 78 1.9 SSW 15 22 8 12 1011.1 - -
27/08:40pm 12.8 8.4 8.9 77 2.0 SSW 22 26 12 14 1011.0 - -
27/08:30pm 13.0 7.8 8.9 76 2.1 SSW 26 30 14 16 1010.9 - -
27/08:20pm 13.0 7.8 8.7 75 2.2 SSW 26 32 14 17 1010.7 - -
27/08:10pm 13.0 8.2 8.9 76 2.1 SSW 24 30 13 16 1010.9 - -
27/08:00pm 13.4 9.7 9.3 76 2.1 SSW 19 24 10 13 1010.6 - -
27/07:50pm 13.6 10.2 9.3 75 2.2 SW 17 22 9 12 1010.6 - -
27/07:40pm 13.4 9.6 8.9 74 2.3 SW 19 24 10 13 1010.5 - -
27/07:30pm 13.4 8.9 8.7 73 2.4 SW 22 26 12 14 1010.4 - -
27/07:20pm 13.5 9.5 8.9 74 2.3 SW 20 28 11 15 1010.2 - -
27/07:10pm 13.4 9.3 8.8 74 2.3 SW 20 26 11 14 1010.3 - -
27/07:00pm 13.2 9.1 8.6 73 2.3 SW 20 26 11 14 1010.1 - -
27/06:50pm 13.2 9.1 8.6 73 2.3 SW 20 26 11 14 1010.0 - -
27/06:40pm 13.1 9.5 8.5 73 2.3 SW 17 24 9 13 1010.2 - -
27/06:30pm 13.2 10.0 8.5 73 2.3 SSW 15 19 8 10 1010.3 - -
27/06:20pm 13.2 10.0 8.4 72 2.4 SSW 15 19 8 10 1010.3 - -
27/06:10pm 13.2 10.3 8.3 72 2.4 SSW 13 17 7 9 1010.1 - -
27/06:00pm 13.2 11.1 8.3 72 2.4 SSW 9 15 5 8 1010.5 - -
27/05:50pm 13.1 10.6 8.2 72 2.4 SSW 11 15 6 8 1010.5 - -
27/05:40pm 13.2 11.1 8.2 71 2.5 SSW 9 13 5 7 1010.3 - -
27/05:30pm 13.3 10.8 8.1 71 2.6 SSW 11 15 6 8 1010.1 - -
27/05:20pm 13.3 10.8 8.2 71 2.5 SSW 11 15 6 8 1010.2 - -
27/05:10pm 13.2 11.4 8.1 71 2.5 SSW 7 13 4 7 1010.1 - -
27/05:00pm 13.2 11.0 7.8 70 2.7 SSW 9 13 5 7 1010.1 - -
27/04:50pm 13.3 11.1 7.8 69 2.7 SSW 9 15 5 8 1010.2 - -
27/04:40pm 13.4 11.7 7.7 68 2.8 SSW 6 11 3 6 1010.1 - -
27/04:30pm 13.5 11.7 7.8 68 2.8 SSW 7 11 4 6 1010.1 - -
27/04:20pm 13.5 11.7 7.8 68 2.8 SSW 7 13 4 7 1010.0 - -
27/04:10pm 13.5 10.8 7.4 66 3.0 SSW 11 15 6 8 1009.9 - -
27/04:00pm 13.5 10.8 7.5 67 2.9 SSW 11 17 6 9 1009.9 - -
27/03:50pm 13.4 10.7 7.4 67 2.9 SSW 11 15 6 8 1009.7 - -
27/03:40pm 13.5 10.8 7.5 67 2.9 SSW 11 17 6 9 1009.4 - -
27/03:20pm 13.5 10.4 7.4 66 3.0 SSW 13 19 7 10 1009.1 - -
27/03:10pm 13.5 10.3 7.0 65 3.2 SW 13 19 7 10 1008.9 - -
27/03:00pm 13.6 10.5 7.1 65 3.2 SW 13 19 7 10 1008.7 - -
27/02:50pm 13.6 10.4 6.8 63 3.3 SW 13 17 7 9 1008.5 - -
27/02:40pm 13.8 10.4 7.6 66 3.1 SW 15 19 8 10 1008.6 - -
27/02:30pm 13.7 10.4 8.1 69 2.8 SW 15 19 8 10 1008.6 - -
27/02:20pm 13.6 10.3 8.0 69 2.8 SW 15 20 8 11 1008.6 - -
27/02:10pm 13.6 9.9 8.1 69 2.7 SW 17 24 9 13 1008.4 - -
27/02:00pm 13.5 9.8 7.8 68 2.8 SW 17 20 9 11 1008.5 - -
27/01:50pm 13.3 9.1 7.5 68 2.8 SW 19 24 10 13 1008.5 - -
27/01:40pm 13.3 9.1 7.4 67 2.9 SW 19 24 10 13 1008.3 - -
27/01:30pm 13.2 9.0 7.3 67 2.9 SSW 19 22 10 12 1008.2 - -
27/01:20pm 13.3 9.5 7.7 69 2.8 SW 17 22 9 12 1008.3 - -
27/01:10pm 13.2 9.4 7.7 69 2.7 SW 17 20 9 11 1008.3 - -
27/01:00pm 13.1 9.3 7.5 69 2.7 SSW 17 20 9 11 1008.3 - -
27/12:50pm 13.2 9.5 7.8 70 2.7 SSW 17 20 9 11 1008.2 - -
27/12:40pm 13.3 9.9 7.7 69 2.8 SSW 15 20 8 11 1008.3 - -
27/12:30pm 13.6 9.9 7.8 68 2.9 SSW 17 20 9 11 1008.2 - -
27/12:20pm 13.8 10.1 7.8 67 3.0 SW 17 22 9 12 1007.9 - -
27/12:10pm 13.7 10.1 6.9 63 3.3 SSW 15 22 8 12 1008.1 - -
27/12:00pm 13.7 10.1 6.9 63 3.3 SSW 15 22 8 12 1008.1 - -
27/11:50am 13.7 9.8 7.1 64 3.2 SSW 17 22 9 12 1008.0 - -
27/11:40am 13.7 9.8 6.9 63 3.3 SSW 17 22 9 12 1008.1 - -
27/11:30am 13.7 9.7 6.6 62 3.4 SSW 17 22 9 12 1008.1 - -
27/11:20am 13.7 9.8 7.0 64 3.3 SSW 17 24 9 13 1008.3 - -
27/11:10am 13.6 9.6 6.8 63 3.3 SSW 17 20 9 11 1008.4 - -
27/11:00am 13.7 9.8 6.9 63 3.3 SSW 17 24 9 13 1008.2 - -
27/10:50am 13.7 9.4 6.9 63 3.3 SSW 19 24 10 13 1008.2 - -
27/10:40am 13.8 9.5 6.8 62 3.4 SSW 19 24 10 13 1008.1 - -
27/10:30am 14.0 10.0 6.6 61 3.6 SW 17 22 9 12 1008.1 - -
27/10:20am 14.1 10.4 6.4 60 3.7 SSW 15 20 8 11 1008.2 - -
27/10:10am 13.8 9.8 6.5 61 3.5 SSW 17 22 9 12 1008.0 - -
27/10:00am 13.7 10.4 6.3 61 3.5 SSW 13 20 7 11 1008.2 - -
27/09:50am 13.7 10.0 6.5 62 3.5 SSW 15 20 8 11 1008.2 - -
27/09:40am 13.4 10.1 6.5 63 3.3 SSW 13 20 7 11 1008.3 - -
27/09:30am 13.6 10.4 6.9 64 3.2 SW 13 20 7 11 1008.2 - -
27/09:20am 13.7 9.8 6.9 63 3.3 SW 17 22 9 12 1007.8 - -
27/09:10am 13.9 10.4 7.1 63 3.3 SW 15 20 8 11 1007.9 - -
27/09:00am 13.8 10.6 7.0 63 3.3 SW 13 22 7 12 1007.8 - -
27/08:50am 13.5 10.3 6.8 64 3.2 SW 13 19 7 10 1007.8 - -
27/08:40am 13.2 9.6 6.7 64 3.1 SW 15 20 8 11 1007.8 - -
27/08:30am 12.6 9.3 6.5 66 2.9 SW 13 20 7 11 1007.8 - -
27/08:20am 12.2 8.8 6.1 66 2.9 SW 13 19 7 10 1007.9 - -
27/08:10am 12.5 9.2 6.4 66 2.9 SW 13 20 7 11 1007.6 - -
27/08:00am 12.3 8.6 6.4 67 2.8 SW 15 20 8 11 1007.6 - -
27/07:50am 12.3 9.4 6.3 67 2.8 SW 11 22 6 12 1008.2 - -
27/07:40am 12.2 9.2 6.0 66 2.9 SW 11 17 6 9 1008.2 - -
27/07:30am 12.1 9.1 6.0 66 2.9 SW 11 19 6 10 1008.1 - -
27/07:20am 12.1 8.7 6.0 66 2.9 SW 13 19 7 10 1007.9 - -
27/07:10am 11.8 8.4 5.7 66 2.8 SW 13 19 7 10 1007.8 - -
27/07:00am 11.8 8.0 5.7 66 2.8 SW 15 20 8 11 1007.5 - -
27/06:50am 11.7 7.9 5.7 66 2.8 SW 15 20 8 11 1007.3 - -
27/06:40am 11.5 7.3 5.6 67 2.7 SW 17 22 9 12 1006.7 - -
27/06:30am 11.4 7.2 5.8 68 2.6 SW 17 24 9 13 1006.7 - -
27/06:20am 11.3 6.8 5.9 69 2.5 SW 19 22 10 12 1006.9 - -
27/06:10am 11.4 7.2 5.7 68 2.6 SW 17 24 9 13 1007.1 - -
27/06:00am 11.3 6.7 5.5 67 2.7 SW 19 24 10 13 1006.9 - -
27/05:50am 11.4 7.6 6.0 69 2.5 SW 15 20 8 11 1007.1 - -
27/05:40am 11.3 7.6 6.4 72 2.3 SW 15 20 8 11 1007.1 - -
27/05:30am 11.1 7.9 7.0 76 2.0 SW 13 20 7 11 1007.1 - -
27/05:20am 11.3 8.2 7.2 76 2.0 SW 13 20 7 11 1007.2 - -
27/05:10am 11.2 8.4 7.1 76 2.0 SW 11 20 6 11 1007.1 - -
27/05:00am 11.2 8.4 7.1 76 2.0 SW 11 15 6 8 1006.9 - -
27/04:50am 11.2 8.8 7.2 76 1.9 WSW 9 15 5 8 1006.8 - -
27/04:40am 11.4 7.9 7.1 75 2.1 WSW 15 22 8 12 1006.9 - -
27/04:30am 11.4 8.6 6.8 73 2.2 WSW 11 17 6 9 1006.9 - -
27/04:20am 11.6 8.4 6.9 73 2.2 W 13 20 7 11 1006.8 - -
27/04:10am 11.9 7.7 7.3 73 2.2 W 19 26 10 14 1006.7 - -
27/04:00am 12.7 7.3 7.8 72 2.4 W 26 33 14 18 1006.4 - -
27/03:50am 13.1 8.5 8.2 72 2.4 W 22 35 12 19 1006.5 - -
27/03:40am 13.1 11.4 8.2 72 2.4 WSW 7 11 4 6 1006.7 - -
27/03:30am 13.3 11.2 8.3 72 2.5 WSW 9 13 5 7 1006.6 - -
27/03:20am 13.5 11.9 8.2 70 2.6 WSW 6 11 3 6 1006.7 - -
27/03:10am 13.6 12.4 8.1 69 2.7 WSW 4 7 2 4 1006.5 - -
27/03:00am 13.6 12.7 7.9 68 2.8 WSW 2 6 1 3 1006.5 - -
27/02:50am 13.6 13.0 7.6 67 3.0 CALM 0 4 0 2 1006.6 - -
27/02:40am 13.7 13.2 7.7 67 3.0 CALM 0 0 0 0 1006.6 - -
27/02:30am 14.1 13.7 8.1 67 3.0 CALM 0 2 0 1 1006.6 - -
27/02:20am 14.0 13.6 8.2 68 2.9 CALM 0 0 0 0 1006.5 - -
27/02:10am 14.1 13.3 8.2 67 2.9 WNW 2 6 1 3 1006.6 - -
27/02:00am 13.9 12.7 7.9 67 3.0 WNW 4 9 2 5 1006.8 - -
27/01:50am 13.9 12.0 7.7 66 3.1 WNW 7 15 4 8 1006.9 - -
27/01:40am 13.7 11.9 7.3 65 3.1 N 6 13 3 7 1007.0 - -
27/01:30am 13.7 11.8 6.9 63 3.3 N 6 9 3 5 1007.1 - -
27/01:20am 13.7 11.8 6.6 62 3.4 N 6 9 3 5 1007.1 - -
27/01:10am 13.7 11.7 6.3 61 3.5 N 6 9 3 5 1007.2 - -
27/01:00am 13.7 11.5 6.3 61 3.5 N 7 11 4 6 1007.5 - -
27/12:50am 13.7 11.8 6.5 62 3.5 - 6 9 3 5 1007.6 - -
27/12:40am 13.7 11.7 6.1 60 3.6 - 6 9 3 5 1007.7 - -
27/12:30am 13.7 11.4 5.9 59 3.7 N 7 11 4 6 1007.9 - -
27/12:20am 13.7 11.6 5.9 59 3.7 - 6 9 3 5 1008.1 - -
27/12:10am 13.6 11.8 5.6 58 3.8 N 4 7 2 4 1008.1 - -
 
Date/Time
EST
Temp
°C
App
Temp
°C
Dew
Point
°C
Rel
Hum
%
Delta-T
°C
Wind Press
QNH
hPa
Press
MSL
hPa
Rain since
9am
mm
Dir  Spd
km/h
Gust
km/h
Spd
kts
Gust
kts
26/11:50pm 13.5 11.7 5.6 59 3.7 - 4 7 2 4 1008.4 - -
26/11:40pm 13.5 11.8 6.0 60 3.6 - 4 7 2 4 1008.5 - -
26/11:30pm 13.5 11.5 6.2 61 3.5 - 6 7 3 4 1008.7 - -
26/11:20pm 13.4 11.4 6.1 61 3.5 - 6 7 3 4 1008.8 - -
26/11:10pm 13.5 11.8 6.1 61 3.5 - 4 7 2 4 1008.8 - -
26/11:00pm 13.5 12.2 6.2 61 3.5 N 2 6 1 3 1008.9 - -
26/10:50pm 13.4 12.4 5.8 60 3.6 CALM 0 4 0 2 1008.8 - -
26/10:40pm 13.3 12.3 5.5 59 3.7 CALM 0 2 0 1 1008.9 - -
26/10:30pm 13.3 12.3 5.5 59 3.7 CALM 0 2 0 1 1008.8 - -
26/10:20pm 13.3 12.3 5.5 59 3.7 CALM 0 4 0 2 1009.0 - -
26/10:10pm 13.3 11.9 5.5 59 3.7 N 2 6 1 3 1009.2 - -
26/10:00pm 13.3 12.3 5.8 60 3.5 CALM 0 4 0 2 1009.2 - -
26/09:50pm 13.2 12.2 5.5 59 3.6 CALM 0 4 0 2 1009.4 - -
26/09:40pm 13.2 12.1 5.3 58 3.7 CALM 0 0 0 0 1009.4 - -
26/09:30pm 13.2 12.2 5.4 59 3.6 CALM 0 0 0 0 1009.5 - -
26/09:20pm 13.2 12.2 5.4 59 3.6 CALM 0 0 0 0 1009.5 - -
26/09:10pm 13.1 12.0 5.3 59 3.6 CALM 0 0 0 0 1009.8 - -
26/09:00pm 13.1 12.0 5.3 59 3.6 CALM 0 2 0 1 1010.1 - -
26/08:50pm 13.0 11.9 5.1 58 3.7 CALM 0 0 0 0 1010.3 - -
26/08:40pm 13.0 11.9 4.9 58 3.7 CALM 0 0 0 0 1010.1 - -
26/08:30pm 12.9 11.8 5.0 58 3.7 CALM 0 0 0 0 1010.0 - -
26/08:20pm 12.9 11.8 5.0 58 3.7 CALM 0 0 0 0 1010.1 - -
26/08:10pm 12.9 11.7 4.7 57 3.8 CALM 0 0 0 0 1010.0 - -
26/08:00pm 12.7 11.5 4.8 58 3.6 CALM 0 0 0 0 1009.9 - -
26/07:50pm 12.7 11.6 5.2 60 3.5 CALM 0 0 0 0 1010.1 - -
26/07:40pm 12.7 11.6 4.9 59 3.6 CALM 0 0 0 0 1009.9 - -
26/07:30pm 12.7 11.5 4.8 58 3.6 CALM 0 0 0 0 1010.0 - -
26/07:20pm 12.7 11.6 5.1 60 3.5 CALM 0 0 0 0 1010.1 - -
26/07:10pm 12.7 11.6 5.1 60 3.5 CALM 0 0 0 0 1010.2 - -
26/07:00pm 12.6 11.5 5.0 60 3.5 CALM 0 0 0 0 1010.2 - -
26/06:50pm 12.5 11.4 5.1 60 3.4 CALM 0 0 0 0 1010.1 - -
26/06:40pm 12.5 11.4 5.1 60 3.4 CALM 0 0 0 0 1010.1 - -
26/06:30pm 12.4 11.3 5.1 61 3.4 CALM 0 0 0 0 1010.2 - -
26/06:20pm 12.3 11.2 5.0 61 3.4 CALM 0 0 0 0 1010.2 - -
26/06:10pm 12.1 11.0 4.9 61 3.3 CALM 0 0 0 0 1010.0 - -
26/06:00pm 12.1 10.9 4.5 59 3.5 CALM 0 0 0 0 1010.0 - -
26/05:50pm 12.1 10.8 4.2 58 3.6 CALM 0 0 0 0 1010.0 - -
26/05:40pm 12.1 10.9 4.6 60 3.4 CALM 0 0 0 0 1010.1 - -
26/05:30pm 12.0 10.8 4.7 61 3.3 CALM 0 0 0 0 1010.0 - -
26/05:20pm 12.0 10.8 4.7 61 3.3 CALM 0 0 0 0 1010.0 - -
26/05:10pm 12.1 10.9 4.5 59 3.5 CALM 0 0 0 0 1009.9 - -
26/05:00pm 12.2 10.9 4.3 58 3.6 CALM 0 0 0 0 1010.0 - -
26/04:50pm 12.2 10.9 4.2 58 3.6 CALM 0 0 0 0 1010.0 - -
26/04:40pm 12.1 10.8 4.1 58 3.6 CALM 0 0 0 0 1009.9 - -
26/04:30pm 12.4 11.1 4.1 57 3.7 CALM 0 0 0 0 1009.8 - -
26/04:20pm 12.3 11.0 3.9 56 3.8 CALM 0 0 0 0 1009.8 - -
26/04:10pm 12.2 10.8 3.6 55 3.8 CALM 0 0 0 0 1009.6 - -
26/04:00pm 12.2 10.9 4.0 57 3.7 CALM 0 0 0 0 1009.7 - -
26/03:50pm 12.5 11.2 4.2 57 3.8 CALM 0 0 0 0 1009.6 - -
26/03:40pm 12.5 11.1 3.8 55 3.9 CALM 0 0 0 0 1009.7 - -
26/03:30pm 12.4 11.1 4.3 57 3.7 CALM 0 0 0 0 1009.8 - -
26/03:20pm 12.4 11.2 4.6 59 3.6 CALM 0 0 0 0 1009.8 - -
26/03:10pm 12.3 11.0 4.2 57 3.7 CALM 0 0 0 0 1009.9 - -
26/03:00pm 12.2 10.9 4.0 57 3.7 CALM 0 0 0 0 1009.9 - -
26/02:50pm 12.1 10.8 4.0 57 3.6 CALM 0 0 0 0 1009.8 - -
26/02:40pm 12.0 10.7 4.2 59 3.5 CALM 0 0 0 0 1009.7 - -
26/02:30pm 12.1 10.9 4.4 59 3.5 CALM 0 0 0 0 1009.6 - -
26/02:20pm 12.2 10.9 4.2 58 3.6 CALM 0 0 0 0 1009.7 - -
26/02:10pm 12.5 11.2 3.9 56 3.9 CALM 0 0 0 0 1009.7 - -
26/02:00pm 12.9 11.6 4.2 55 4.0 CALM 0 0 0 0 1009.8 - -
26/01:50pm 12.9 11.6 4.1 55 4.0 CALM 0 0 0 0 1009.7 - -
26/01:40pm 13.3 12.0 4.3 54 4.1 CALM 0 0 0 0 1009.6 - -
26/01:30pm 13.3 12.0 4.2 54 4.2 CALM 0 0 0 0 1009.8 - -
26/01:20pm 13.4 12.2 4.5 55 4.1 CALM 0 0 0 0 1009.8 - -
26/01:10pm 13.5 12.2 4.2 53 4.2 CALM 0 0 0 0 1009.8 - -
26/01:00pm 13.4 12.1 4.3 54 4.2 CALM 0 0 0 0 1009.8 - -
26/12:50pm 13.3 12.0 4.3 54 4.1 CALM 0 0 0 0 1009.9 - -
26/12:40pm 13.4 12.2 4.5 55 4.1 CALM 0 0 0 0 1010.1 - -
26/12:30pm 13.5 12.2 4.3 53 4.2 CALM 0 0 0 0 1010.3 - -
26/12:20pm 13.7 12.5 4.6 54 4.2 CALM 0 0 0 0 1010.4 - -
26/12:10pm 13.9 12.7 4.6 53 4.3 CALM 0 0 0 0 1010.5 - -
26/12:00pm 14.3 13.1 4.7 52 4.5 CALM 0 0 0 0 1010.6 - -
26/11:50am 14.6 13.5 5.2 53 4.4 CALM 0 0 0 0 1010.8 - -
26/11:40am 14.7 13.7 5.4 53 4.4 CALM 0 0 0 0 1010.9 - -
26/11:30am 14.9 13.9 5.8 54 4.4 CALM 0 0 0 0 1011.0 - -
26/11:20am 14.9 14.0 5.9 55 4.3 CALM 0 4 0 2 1011.1 - -
26/11:10am 14.9 14.0 6.0 55 4.3 CALM 0 4 0 2 1011.1 - -
26/11:00am 15.1 14.2 6.1 55 4.3 CALM 0 4 0 2 1011.3 - -
26/10:50am 14.9 14.0 6.2 56 4.2 CALM 0 4 0 2 1011.1 - -
26/10:40am 14.7 13.8 6.1 56 4.1 CALM 0 6 0 3 1011.1 - -
26/10:30am 14.7 13.8 6.1 56 4.1 CALM 0 2 0 1 1011.0 - -
26/10:20am 14.9 14.0 6.0 55 4.3 CALM 0 4 0 2 1011.3 - -
26/10:10am 15.1 14.1 5.6 53 4.5 CALM 0 4 0 2 1011.3 - -
26/10:00am 15.1 14.0 5.0 51 4.8 CALM 0 4 0 2 1011.3 - -
26/09:50am 15.0 14.0 5.6 53 4.5 CALM 0 2 0 1 1011.4 - -
26/09:40am 14.9 13.8 5.2 52 4.6 CALM 0 4 0 2 1011.5 - -
26/09:30am 15.0 13.9 4.9 51 4.7 CALM 0 2 0 1 1011.6 - -
26/09:20am 14.9 13.8 5.1 52 4.6 CALM 0 2 0 1 1011.7 - -
26/09:10am 14.8 13.8 5.5 53 4.4 CALM 0 6 0 3 1011.7 - -
26/09:00am 14.9 13.9 5.8 54 4.4 CALM 0 4 0 2 1011.7 - -
26/08:50am 14.7 13.7 5.8 55 4.2 CALM 0 2 0 1 1011.6 - -
26/08:40am 14.6 13.7 6.0 56 4.1 CALM 0 4 0 2 1011.6 - -
26/08:30am 14.7 13.5 6.6 58 3.9 WSW 2 7 1 4 1011.5 - -
26/08:20am 14.7 13.5 6.3 57 4.1 WSW 2 6 1 3 1011.6 - -
26/08:10am 14.7 13.4 6.2 56 4.1 WSW 2 4 1 2 1011.9 - -

Other Formats:

Comma delimited format used in spreadsheet applications
http://www.bom.gov.au/fwo/IDV60801/IDV60801.55039.axf

JavaScript Object Notation format (JSON) in row-major order
http://www.bom.gov.au/fwo/IDV60801/IDV60801.55039.json